Time;durP1;ratioP1;P1;durP2;ratioP2;P2;SDS_P1;SDS_P2;PMS_P1;PMS_P2;Temp;Humidity;BMP_temperature;BMP_pressure;BME280_temperature;BME280_humidity;BME280_pressure;Samples;Min_cycle;Max_cycle;Signal;HPM_P1;HPM_P2
2021/06/14 05:51:48;;;;;;;3.85;1.82;;;;;;;12.54;82.68;97947.41;1871609;76;22659;-67
2021/06/14 05:54:15;;;;;;;4.40;1.57;;;;;;;12.49;82.81;97948.86;1827980;78;20915;-67
2021/06/14 05:56:42;;;;;;;7.47;1.32;;;;;;;12.55;82.84;97955.73;1827852;78;21242;-67
2021/06/14 05:59:09;;;;;;;3.33;1.25;;;;;;;12.62;82.73;97961.48;1828002;78;20864;-68
2021/06/14 06:01:36;;;;;;;5.47;1.52;;;;;;;12.70;82.69;97966.91;1835240;77;21351;-70
2021/06/14 06:04:04;;;;;;;4.33;1.50;;;;;;;12.79;82.33;97970.45;1827817;78;20916;-64
2021/06/14 06:06:31;;;;;;;2.62;1.60;;;;;;;12.87;82.18;97971.63;1842400;77;21359;-68
2021/06/14 06:08:59;;;;;;;2.87;1.47;;;;;;;12.95;82.15;97972.25;1827807;78;21051;-67
2021/06/14 06:11:25;;;;;;;2.35;1.50;;;;;;;12.98;81.78;97976.99;1827751;78;20915;-65
2021/06/14 06:13:52;;;;;;;3.20;1.30;;;;;;;13.03;81.64;97970.16;1827676;78;20935;-68
2021/06/14 06:16:20;;;;;;;6.30;1.40;;;;;;;13.12;81.25;97978.33;1827876;78;20876;-69
2021/06/14 06:18:47;;;;;;;3.52;1.55;;;;;;;13.18;80.87;97984.61;1825280;77;21367;-68
2021/06/14 06:21:15;;;;;;;6.85;1.57;;;;;;;13.19;80.67;97982.16;1820973;77;21111;-69
2021/06/14 06:23:48;;;;;;;2.60;1.40;;;;;;;13.23;80.38;97985.84;1816646;77;21311;-71
2021/06/14 06:26:14;;;;;;;2.80;1.40;;;;;;;13.25;79.88;97991.70;1827799;78;20877;-69
2021/06/14 06:28:42;;;;;;;2.27;1.25;;;;;;;13.26;79.95;97983.86;1839339;77;20969;-67
2021/06/14 06:31:09;;;;;;;3.65;1.57;;;;;;;13.30;79.87;97988.89;1828659;77;20972;-72
2021/06/14 06:33:37;;;;;;;5.17;1.67;;;;;;;13.38;79.32;97992.16;1827869;78;22078;-71
2021/06/14 06:36:05;;;;;;;4.08;1.27;;;;;;;13.41;79.45;97994.25;1827576;78;20924;-66
2021/06/14 06:38:32;;;;;;;2.58;1.40;;;;;;;13.44;79.38;97991.49;1824932;78;20947;-67
2021/06/14 06:40:59;;;;;;;4.53;1.47;;;;;;;13.46;79.58;97995.46;1795229;79;20880;-69
2021/06/14 06:43:26;;;;;;;3.17;1.47;;;;;;;13.53;79.52;98001.74;1807337;77;21350;-67
2021/06/14 06:45:53;;;;;;;7.22;1.72;;;;;;;13.56;79.24;98008.66;1853851;77;21105;-66
2021/06/14 06:48:20;;;;;;;4.72;1.80;;;;;;;13.57;79.17;98006.20;1853786;77;21453;-67
2021/06/14 06:50:47;;;;;;;4.17;1.57;;;;;;;13.59;79.18;98010.72;1851407;77;21362;-67
2021/06/14 06:53:13;;;;;;;4.55;2.00;;;;;;;13.62;79.40;98002.03;1848304;77;20907;-65
2021/06/14 06:55:41;;;;;;;2.67;1.80;;;;;;;13.64;79.06;98007.89;1848331;77;20949;-69
2021/06/14 06:58:08;;;;;;;2.55;1.77;;;;;;;13.66;78.77;98009.72;1847898;77;21964;-67
2021/06/14 07:00:34;;;;;;;9.40;2.40;;;;;;;13.71;78.78;98006.91;1848232;77;20815;-66
2021/06/14 07:03:08;;;;;;;6.20;2.50;;;;;;;13.79;78.85;98005.36;1827645;77;20979;-67
2021/06/14 07:05:38;;;;;;;7.75;3.60;;;;;;;13.85;78.76;98005.45;1833190;77;20856;-66
2021/06/14 07:08:07;;;;;;;3.85;2.20;;;;;;;13.89;78.66;98012.37;1826266;77;20870;-65
2021/06/14 07:10:35;;;;;;;6.22;1.95;;;;;;;13.89;78.60;98016.41;1830971;77;21087;-67
2021/06/14 07:13:03;;;;;;;3.30;1.72;;;;;;;13.93;78.63;98014.67;1823520;78;21016;-66
2021/06/14 07:15:31;;;;;;;3.80;2.12;;;;;;;13.95;78.41;98016.50;1823523;78;21033;-68
2021/06/14 07:17:58;;;;;;;4.05;2.12;;;;;;;13.98;78.24;98017.23;1823776;78;21104;-69
2021/06/14 07:20:28;;;;;;;5.33;2.17;;;;;;;14.00;78.43;98009.63;1765524;78;20978;-66
2021/06/14 07:22:55;;;;;;;4.65;2.00;;;;;;;14.01;78.39;98015.27;1812630;77;21106;-68
2021/06/14 07:25:22;;;;;;;5.67;1.95;;;;;;;14.01;78.41;98021.45;1797787;79;20924;-67
2021/06/14 07:27:51;;;;;;;5.87;2.00;;;;;;;13.98;78.36;98020.73;1797432;79;20872;-66
2021/06/14 07:30:19;;;;;;;5.40;2.17;;;;;;;13.96;78.20;98018.10;1796292;79;20978;-65
2021/06/14 07:32:46;;;;;;;3.90;2.20;;;;;;;13.93;78.19;98026.80;1822006;78;21097;-65
2021/06/14 07:35:14;;;;;;;4.67;2.10;;;;;;;13.94;78.46;98027.05;1828005;77;21496;-66
2021/06/14 07:37:41;;;;;;;4.12;2.20;;;;;;;13.90;78.51;98026.86;1823513;78;20919;-67
2021/06/14 07:40:10;;;;;;;4.25;1.85;;;;;;;13.87;78.54;98031.54;1804708;78;20948;-68
2021/06/14 07:42:37;;;;;;;7.80;1.77;;;;;;;13.85;78.51;98030.26;1818859;78;21030;-68
2021/06/14 07:45:06;;;;;;;4.60;2.20;;;;;;;13.80;78.63;98034.42;1817710;78;20904;-67
2021/06/14 07:47:33;;;;;;;5.53;2.22;;;;;;;13.77;78.67;98037.73;1816070;78;21880;-66
2021/06/14 07:50:00;;;;;;;5.20;2.20;;;;;;;13.76;78.88;98040.16;1833464;77;21526;-65
2021/06/14 07:52:28;;;;;;;3.47;2.12;;;;;;;13.76;78.73;98036.13;1798849;77;20924;-65
2021/06/14 07:54:55;;;;;;;5.70;1.95;;;;;;;13.67;78.51;98038.23;1804212;79;20968;-65
2021/06/14 07:57:22;;;;;;;3.65;1.80;;;;;;;13.62;78.72;98037.02;1804403;79;21389;-66
2021/06/14 07:59:50;;;;;;;3.72;2.20;;;;;;;13.62;78.75;98040.26;1804386;79;21405;-68
2021/06/14 08:02:18;;;;;;;4.00;1.90;;;;;;;13.60;78.58;98039.23;1777327;79;20976;-71
2021/06/14 08:04:45;;;;;;;3.27;1.80;;;;;;;13.59;79.03;98042.21;1804305;79;21075;-68
2021/06/14 08:07:12;;;;;;;4.95;2.05;;;;;;;13.59;79.17;98045.70;1804168;79;20959;-64
2021/06/14 08:09:39;;;;;;;5.72;2.10;;;;;;;13.59;78.88;98043.02;1802802;79;21067;-68
2021/06/14 08:12:08;;;;;;;4.60;1.75;;;;;;;13.58;78.95;98045.48;1788073;79;21145;-68
2021/06/14 08:14:35;;;;;;;3.25;1.90;;;;;;;13.60;78.86;98048.65;1731937;82;21082;-66
2021/06/14 08:17:03;;;;;;;2.33;1.60;;;;;;;13.68;79.00;98053.27;1751590;81;20836;-70
2021/06/14 08:27:28;;;;;;;3.98;1.82;;;;;;;13.71;78.35;98047.28;1751097;82;20148;-70
2021/06/14 08:29:55;;;;;;;6.28;2.20;;;;;;;13.66;78.49;98050.64;1750668;81;21010;-68
2021/06/14 08:32:22;;;;;;;4.05;1.85;;;;;;;13.63;78.39;98057.46;1750327;81;21070;-66
2021/06/14 08:34:49;;;;;;;5.40;2.20;;;;;;;13.65;78.50;98063.33;1750787;81;21117;-69
2021/06/14 08:37:15;;;;;;;5.33;2.00;;;;;;;13.63;78.43;98057.46;1723215;82;21264;-67
2021/06/14 08:39:43;;;;;;;4.75;1.80;;;;;;;13.61;78.52;98051.56;1750127;81;21561;-67
2021/06/14 08:42:10;;;;;;;4.78;2.37;;;;;;;13.60;78.82;98047.30;1750167;81;21097;-68
2021/06/14 08:44:38;;;;;;;5.10;1.90;;;;;;;13.64;78.70;98045.58;1750857;81;21027;-68
2021/06/14 08:47:07;;;;;;;7.50;1.90;;;;;;;13.65;78.58;98052.56;1720916;83;21419;-66
2021/06/14 08:49:35;;;;;;;3.60;2.27;;;;;;;13.67;78.63;98059.77;1724947;82;21703;-67
2021/06/14 08:52:05;;;;;;;3.85;2.25;;;;;;;13.66;78.85;98062.20;1704446;83;20915;-66
2021/06/14 08:54:32;;;;;;;5.37;2.08;;;;;;;13.68;78.88;98061.34;1694972;84;20894;-67
2021/06/14 08:56:59;;;;;;;6.60;2.40;;;;;;;13.68;78.95;98065.37;1695059;84;20939;-67
2021/06/14 08:59:26;;;;;;;8.33;2.40;;;;;;;13.68;79.03;98062.69;1695051;84;20955;-67
2021/06/14 09:01:53;;;;;;;6.95;2.60;;;;;;;13.71;79.03;98065.32;1695066;84;21042;-68
2021/06/14 09:04:20;;;;;;;6.80;2.47;;;;;;;13.72;79.03;98070.95;1695177;84;21391;-66
2021/06/14 09:06:47;;;;;;;5.62;2.40;;;;;;;13.71;79.02;98076.89;1695327;84;20896;-67
2021/06/14 09:09:14;;;;;;;3.33;1.92;;;;;;;13.69;78.67;98071.56;1695040;84;21010;-66
2021/06/14 09:11:50;;;;;;;5.42;2.40;;;;;;;13.67;78.74;98079.95;1667613;84;21419;-66
2021/06/14 09:14:22;;;;;;;4.55;2.40;;;;;;;13.65;78.92;98080.82;1694898;84;21523;-66
2021/06/14 09:16:51;;;;;;;4.42;2.42;;;;;;;13.62;79.08;98084.12;1694287;84;21216;-64
2021/06/14 09:19:35;;;;;;;5.47;2.22;;;;;;;13.60;79.12;98087.67;1693864;84;21543;-66
2021/06/14 09:22:21;;;;;;;12.78;2.30;;;;;;;13.63;78.94;98094.34;1693585;84;21542;-65
2021/06/14 09:25:10;;;;;;;5.50;2.60;;;;;;;13.63;79.13;98097.83;1694361;84;26560;-66
2021/06/14 09:27:42;;;;;;;5.62;2.45;;;;;;;13.66;79.36;98107.96;1693705;84;21207;-66
2021/06/14 09:30:22;;;;;;;4.47;2.45;;;;;;;13.67;79.30;98120.33;1694188;84;21550;-66
2021/06/14 09:33:08;;;;;;;5.53;2.50;;;;;;;13.66;78.93;98115.23;1692494;84;20900;-66
2021/06/14 09:35:41;;;;;;;4.53;2.40;;;;;;;13.59;79.13;98120.25;1695081;84;20952;-68
2021/06/14 09:38:14;;;;;;;7.37;2.50;;;;;;;13.51;79.10;98119.12;1694983;84;20915;-67
2021/06/14 09:40:52;;;;;;;11.22;2.50;;;;;;;13.45;79.29;98114.14;1695111;84;21106;-68
2021/06/14 09:43:38;;;;;;;6.65;2.47;;;;;;;13.39;79.56;98122.90;1695022;84;20923;-67
2021/06/14 09:46:21;;;;;;;6.25;2.95;;;;;;;13.30;79.58;98124.73;1694985;84;21563;-66
2021/06/14 09:48:51;;;;;;;6.40;2.52;;;;;;;13.23;79.94;98120.86;1690751;84;21006;-67
2021/06/14 09:51:19;;;;;;;8.00;2.75;;;;;;;13.22;80.06;98122.75;1700532;83;20928;-66
2021/06/14 09:53:54;;;;;;;3.33;2.30;;;;;;;13.22;80.05;98117.38;1755499;79;21179;-65
2021/06/14 09:56:36;;;;;;;8.80;3.12;;;;;;;13.23;80.17;98123.55;1759967;80;20867;-73
2021/06/14 09:59:05;;;;;;;5.62;3.10;;;;;;;13.28;80.30;98130.97;1719671;83;20973;-66
2021/06/14 10:01:37;;;;;;;5.67;2.70;;;;;;;13.31;80.38;98123.61;1756554;81;20891;-69
2021/06/14 10:04:06;;;;;;;3.77;2.33;;;;;;;13.32;80.30;98127.91;1719655;83;21412;-66
2021/06/14 10:06:35;;;;;;;6.75;2.77;;;;;;;13.35;80.27;98121.92;1756592;81;21077;-66
2021/06/14 10:09:06;;;;;;;4.70;2.50;;;;;;;13.39;80.26;98132.86;1719672;83;21408;-66
2021/06/14 10:11:35;;;;;;;5.17;2.67;;;;;;;13.39;80.22;98128.28;1730657;80;20927;-64
2021/06/14 10:14:10;;;;;;;4.70;2.65;;;;;;;13.38;80.25;98132.59;1724797;82;20908;-63
2021/06/14 10:16:43;;;;;;;7.47;2.37;;;;;;;13.37;80.41;98119.72;1754207;81;20943;-65
2021/06/14 10:19:13;;;;;;;9.28;2.58;;;;;;;13.38;80.45;98115.91;1756311;81;21093;-63
2021/06/14 10:21:42;;;;;;;6.58;2.55;;;;;;;13.41;80.63;98105.89;1756681;81;20892;-67
2021/06/14 10:24:12;;;;;;;5.25;2.33;;;;;;;13.48;80.73;98112.98;1760209;79;21061;-68
2021/06/14 10:26:42;;;;;;;6.65;2.30;;;;;;;13.53;80.52;98120.95;1762867;81;20866;-71
2021/06/14 10:29:12;;;;;;;4.95;2.50;;;;;;;13.56;80.49;98117.66;1762664;81;20941;-61
2021/06/14 10:31:40;;;;;;;3.30;1.90;;;;;;;13.60;80.22;98125.34;1762856;81;21087;-67
2021/06/14 10:34:07;;;;;;;5.97;2.00;;;;;;;13.61;80.22;98121.54;1762363;81;21120;-65
2021/06/14 10:36:34;;;;;;;5.25;2.25;;;;;;;13.64;80.25;98124.97;1762669;81;21012;-66
2021/06/14 10:39:04;;;;;;;7.87;2.22;;;;;;;13.64;80.14;98110.17;1762694;81;20983;-67
2021/06/14 10:41:31;;;;;;;6.50;2.22;;;;;;;13.63;80.16;98118.02;1731654;81;21461;-68
2021/06/14 10:44:00;;;;;;;5.47;2.45;;;;;;;13.64;80.20;98119.59;1762698;81;21161;-67
2021/06/14 10:46:27;;;;;;;7.15;2.40;;;;;;;13.65;80.10;98122.54;1762626;81;20949;-64
2021/06/14 10:48:57;;;;;;;6.12;2.00;;;;;;;13.66;80.19;98118.73;1731080;79;21385;-65
2021/06/14 10:51:25;;;;;;;3.90;2.10;;;;;;;13.68;80.26;98124.59;1759905;81;20980;-66
2021/06/14 10:53:52;;;;;;;3.17;1.70;;;;;;;13.69;80.05;98119.47;1736874;82;20938;-64
2021/06/14 10:56:20;;;;;;;4.33;1.60;;;;;;;13.62;80.17;98120.45;1736735;82;21122;-66
2021/06/14 10:59:03;;;;;;;6.60;1.40;;;;;;;13.65;80.49;98121.19;1737480;82;20986;-65
2021/06/14 11:01:35;;;;;;;5.42;1.62;;;;;;;13.72;80.58;98122.10;1736659;82;21046;-65
2021/06/14 11:04:03;;;;;;;4.00;1.80;;;;;;;13.73;80.35;98116.17;1734338;82;21456;-64
2021/06/14 11:06:32;;;;;;;4.35;1.60;;;;;;;13.72;80.40;98120.75;1737636;82;20930;-68
2021/06/14 11:09:12;;;;;;;3.30;1.50;;;;;;;13.68;80.30;98115.17;1737620;82;21096;-66
2021/06/14 11:11:53;;;;;;;5.17;1.52;;;;;;;13.68;80.47;98113.83;1737538;82;20935;-67
2021/06/14 11:14:43;;;;;;;4.80;1.80;;;;;;;13.69;80.43;98114.62;1737885;82;20944;-67
2021/06/14 11:17:25;;;;;;;3.75;1.60;;;;;;;13.69;80.38;98103.86;1735745;82;20938;-68
2021/06/14 11:20:04;;;;;;;4.47;1.77;;;;;;;13.73;80.65;98105.63;1737735;82;20931;-67
2021/06/14 11:22:47;;;;;;;3.20;1.90;;;;;;;13.80;80.59;98104.42;1737709;82;21121;-66
2021/06/14 11:25:25;;;;;;;4.72;1.90;;;;;;;13.89;80.37;98107.95;1737819;82;20934;-67
2021/06/14 11:27:51;;;;;;;2.93;2.00;;;;;;;13.93;80.37;98103.53;1738035;82;20895;-68
2021/06/14 11:30:25;;;;;;;4.50;2.37;;;;;;;13.96;80.39;98112.34;1737589;82;20986;-65
2021/06/14 11:32:53;;;;;;;3.62;1.90;;;;;;;13.98;80.08;98108.79;1738069;82;20930;-66
2021/06/14 11:35:20;;;;;;;4.42;1.98;;;;;;;14.01;80.07;98102.80;1737688;82;21203;-66
2021/06/14 11:37:49;;;;;;;2.98;2.20;;;;;;;14.05;80.00;98113.19;1737825;82;21019;-67
2021/06/14 11:40:19;;;;;;;5.17;2.00;;;;;;;14.09;79.80;98112.80;1737526;82;20982;-67
2021/06/14 11:42:54;;;;;;;3.27;2.05;;;;;;;14.12;79.76;98117.58;1737577;82;21082;-65
2021/06/14 11:45:30;;;;;;;5.12;2.30;;;;;;;14.18;79.67;98116.32;1737826;82;20875;-66
2021/06/14 11:48:00;;;;;;;3.40;2.00;;;;;;;14.23;79.73;98121.58;1737530;82;21722;-68
2021/06/14 11:50:30;;;;;;;6.83;2.17;;;;;;;14.37;79.65;98121.75;1737606;82;20934;-65
2021/06/14 11:53:06;;;;;;;3.90;1.95;;;;;;;14.47;79.40;98127.42;1737461;81;20931;-64
2021/06/14 11:55:36;;;;;;;2.40;1.70;;;;;;;14.56;79.01;98126.09;1729483;83;20939;-66
2021/06/14 11:58:06;;;;;;;4.03;1.85;;;;;;;14.59;78.66;98127.63;1729387;82;20891;-67
2021/06/14 12:00:42;;;;;;;5.37;1.90;;;;;;;14.61;78.38;98125.41;1729400;83;21090;-63
2021/06/14 12:03:21;;;;;;;4.62;1.90;;;;;;;14.62;78.18;98124.31;1729490;83;21392;-69
2021/06/14 12:05:49;;;;;;;3.12;2.10;;;;;;;14.64;78.12;98130.18;1729505;83;21494;-67
2021/06/14 12:08:25;;;;;;;3.98;2.10;;;;;;;14.62;78.19;98129.70;1729469;82;20911;-68
2021/06/14 12:10:58;;;;;;;5.75;2.00;;;;;;;14.63;77.91;98132.63;1729530;83;20934;-65
2021/06/14 12:13:27;;;;;;;;;;;;;;;14.60;77.89;98131.12;1732174;83;21127;-64
2021/06/14 12:15:56;;;;;;;6.40;2.00;;;;;;;14.55;77.92;98133.41;1729757;83;20111;-64
2021/06/14 12:18:23;;;;;;;3.27;2.20;;;;;;;14.53;77.85;98127.51;1729722;83;20891;-65
2021/06/14 12:21:04;;;;;;;4.62;3.08;;;;;;;14.48;78.04;98133.06;1730111;82;21454;-64
2021/06/14 12:23:33;;;;;;;3.90;1.98;;;;;;;14.47;78.05;98130.11;1728441;83;20966;-64
2021/06/14 12:26:00;;;;;;;8.20;2.50;;;;;;;14.46;78.14;98128.52;1729725;83;21239;-66
2021/06/14 12:28:27;;;;;;;2.33;2.02;;;;;;;14.45;78.33;98132.33;1700839;83;20896;-64
2021/06/14 12:31:05;;;;;;;5.08;2.02;;;;;;;14.47;78.33;98126.07;1729500;83;20844;-67
2021/06/14 12:33:35;;;;;;;8.30;2.15;;;;;;;14.50;78.41;98122.77;1729454;83;21475;-66
2021/06/14 12:36:03;;;;;;;5.47;2.40;;;;;;;14.57;78.27;98127.15;1729705;82;20935;-65
2021/06/14 12:38:31;;;;;;;5.22;2.37;;;;;;;14.65;78.25;98122.31;1729438;83;21724;-66
2021/06/14 12:40:59;;;;;;;3.83;2.20;;;;;;;14.75;77.76;98120.69;1729310;82;20943;-66
2021/06/14 12:43:35;;;;;;;3.58;2.12;;;;;;;14.87;77.73;98116.03;1729607;83;20993;-65
2021/06/14 12:46:03;;;;;;;4.28;2.17;;;;;;;15.04;77.43;98112.02;1729387;83;21396;-66
2021/06/14 12:48:29;;;;;;;5.60;2.00;;;;;;;15.30;77.07;98115.53;1729497;83;20884;-68
2021/06/14 12:50:57;;;;;;;5.97;1.92;;;;;;;15.52;76.58;98111.91;1729483;82;21129;-65
2021/06/14 12:53:26;;;;;;;8.33;2.42;;;;;;;15.71;75.72;98115.03;1742579;80;20844;-65
2021/06/14 12:55:55;;;;;;;3.67;2.02;;;;;;;15.86;75.68;98124.55;1750288;81;20923;-66
2021/06/14 12:58:24;;;;;;;4.42;2.35;;;;;;;15.99;75.35;98125.70;1728269;83;21412;-67
2021/06/14 13:01:12;;;;;;;5.12;1.82;;;;;;;16.09;74.75;98124.02;1755077;81;20887;-68
2021/06/14 13:03:39;;;;;;;2.67;1.82;;;;;;;16.13;74.39;98122.25;1754801;81;21040;-66
2021/06/14 13:06:07;;;;;;;4.33;1.82;;;;;;;16.13;73.97;98118.19;1721365;81;21007;-68
2021/06/14 13:08:41;;;;;;;7.28;2.08;;;;;;;16.09;74.02;98109.16;1749339;81;20915;-64
2021/06/14 13:11:14;;;;;;;6.67;1.70;;;;;;;16.06;73.87;98116.55;1751278;81;20963;-65
2021/06/14 13:13:47;;;;;;;2.77;1.80;;;;;;;16.05;74.09;98114.98;1748422;82;21490;-64
2021/06/14 13:16:17;;;;;;;5.30;1.87;;;;;;;16.10;73.91;98115.36;1748503;82;22085;-65
2021/06/14 13:19:00;;;;;;;3.62;1.92;;;;;;;16.17;73.73;98117.80;1748327;82;21038;-65
2021/06/14 13:21:34;;;;;;;5.72;1.87;;;;;;;16.31;73.77;98119.74;1747120;82;21324;-64
2021/06/14 13:24:11;;;;;;;3.85;2.30;;;;;;;16.45;73.29;98122.22;1747297;82;21063;-66
2021/06/14 13:26:44;;;;;;;3.62;1.70;;;;;;;16.52;72.67;98122.54;1748963;82;21466;-65
2021/06/14 13:29:16;;;;;;;5.45;1.85;;;;;;;16.63;72.77;98122.98;1748301;82;21098;-64
2021/06/14 13:31:44;;;;;;;3.83;1.70;;;;;;;16.67;72.69;98118.50;1748569;82;20948;-66
2021/06/14 13:34:29;;;;;;;8.83;2.15;;;;;;;16.69;72.32;98116.25;1748447;82;20927;-64
2021/06/14 13:36:55;;;;;;;3.25;1.80;;;;;;;16.67;72.39;98122.00;1748510;82;21039;-65
2021/06/14 13:39:35;;;;;;;3.75;1.72;;;;;;;16.61;72.20;98122.48;1748393;82;20900;-64
2021/06/14 13:42:11;;;;;;;5.08;1.95;;;;;;;16.53;72.33;98124.69;1748837;82;21074;-63
2021/06/14 13:44:52;;;;;;;4.75;1.75;;;;;;;16.41;72.14;98111.83;1748322;82;20995;-65
2021/06/14 13:47:21;;;;;;;4.62;1.77;;;;;;;16.30;72.02;98113.28;1746989;82;20995;-66
2021/06/14 13:49:48;;;;;;;13.83;2.40;;;;;;;16.17;72.14;98113.75;1748270;82;20920;-65
2021/06/14 13:52:17;;;;;;;6.55;2.52;;;;;;;16.14;72.46;98113.03;1748615;80;20991;-65
2021/06/14 13:54:57;;;;;;;4.53;1.77;;;;;;;16.21;72.50;98112.53;1757326;81;21101;-65
2021/06/14 13:57:24;;;;;;;6.12;2.20;;;;;;;16.31;72.71;98114.89;1757414;81;20908;-65
2021/06/14 13:59:51;;;;;;;4.20;2.00;;;;;;;16.42;71.77;98115.55;1757410;81;20868;-66
2021/06/14 14:02:21;;;;;;;5.25;2.10;;;;;;;16.46;72.00;98110.30;1727875;81;20974;-65
2021/06/14 14:04:48;;;;;;;2.58;1.60;;;;;;;16.50;71.81;98117.98;1760029;79;21050;-65
2021/06/14 14:07:15;;;;;;;5.08;1.82;;;;;;;16.49;71.82;98110.22;1760887;81;21184;-65
2021/06/14 14:09:42;;;;;;;4.97;1.92;;;;;;;16.50;71.82;98107.73;1761305;81;20859;-65
2021/06/14 14:12:10;;;;;;;1.92;1.50;;;;;;;16.50;71.61;98106.38;1761316;81;20947;-65
2021/06/14 14:14:37;;;;;;;4.60;1.70;;;;;;;16.60;71.17;98108.75;1761445;81;20949;-66
2021/06/14 14:17:04;;;;;;;6.60;1.80;;;;;;;16.74;70.88;98113.37;1761705;81;21371;-65
2021/06/14 14:19:35;;;;;;;4.53;1.87;;;;;;;16.92;70.58;98098.61;1761361;81;22224;-64
2021/06/14 14:22:05;;;;;;;3.67;1.90;;;;;;;17.18;70.27;98095.72;1761286;81;20887;-65
2021/06/14 14:24:32;;;;;;;3.75;1.90;;;;;;;17.38;69.74;98087.58;1761435;81;20937;-65
2021/06/14 14:27:00;;;;;;;2.92;1.60;;;;;;;17.65;69.27;98084.34;1761432;81;20911;-65
2021/06/14 14:29:32;;;;;;;3.02;1.62;;;;;;;17.92;68.58;98086.23;1761648;81;20995;-65
2021/06/14 14:32:07;;;;;;;2.58;1.70;;;;;;;18.11;68.03;98089.22;1761199;81;21080;-65
2021/06/14 14:34:46;;;;;;;3.20;1.57;;;;;;;18.22;67.39;98080.30;1756546;81;21490;-64
2021/06/14 14:37:31;;;;;;;6.20;1.60;;;;;;;18.23;66.97;98081.10;1756015;81;20943;-64
2021/06/14 14:40:10;;;;;;;;;;;;;;;18.24;66.96;98086.73;1763019;81;20970;-65
2021/06/14 14:42:38;;;;;;;5.22;1.72;;;;;;;18.19;66.50;98076.91;1762831;81;20187;-65
2021/06/14 14:45:08;;;;;;;1.95;1.45;;;;;;;18.18;66.49;98076.66;1763613;81;21110;-66
2021/06/14 14:47:36;;;;;;;3.52;1.80;;;;;;;18.18;66.81;98082.67;1763986;81;20962;-66
2021/06/14 14:50:04;;;;;;;3.40;1.67;;;;;;;18.37;66.44;98069.36;1763874;81;20879;-64
2021/06/14 14:52:30;;;;;;;2.75;1.70;;;;;;;18.66;66.09;98074.56;1763864;80;21415;-66
2021/06/14 14:54:57;;;;;;;6.12;1.90;;;;;;;18.89;65.64;98074.30;1752838;82;20974;-64
2021/06/14 14:57:24;;;;;;;3.30;1.70;;;;;;;19.24;64.64;98072.43;1752837;81;21191;-65
2021/06/14 14:59:51;;;;;;;2.55;1.52;;;;;;;19.41;64.35;98076.23;1752763;82;20907;-65
2021/06/14 15:02:19;;;;;;;4.95;1.67;;;;;;;19.39;64.17;98073.07;1753086;81;20884;-66
2021/06/14 15:04:46;;;;;;;3.45;1.62;;;;;;;19.20;63.63;98074.23;1752887;82;20920;-65
2021/06/14 15:07:13;;;;;;;6.92;1.70;;;;;;;18.96;64.26;98078.59;1753048;82;21415;-65
2021/06/14 15:09:39;;;;;;;3.47;1.65;;;;;;;18.85;64.57;98081.56;1752820;81;20989;-65
2021/06/14 15:12:08;;;;;;;4.50;1.65;;;;;;;18.81;64.57;98076.59;1752724;81;20888;-66
2021/06/14 15:14:35;;;;;;;5.85;1.60;;;;;;;18.76;64.49;98080.09;1752914;81;21616;-66
2021/06/14 15:17:03;;;;;;;1.52;1.30;;;;;;;18.69;64.78;98082.03;1752762;82;20939;-65
2021/06/14 15:19:31;;;;;;;3.37;1.45;;;;;;;18.69;65.38;98088.02;1753115;81;21388;-65
2021/06/14 15:22:02;;;;;;;4.33;1.70;;;;;;;18.77;65.12;98091.95;1752802;81;21112;-65
2021/06/14 15:24:28;;;;;;;2.58;1.40;;;;;;;18.82;65.00;98089.58;1752899;81;20915;-65
2021/06/14 15:26:56;;;;;;;3.05;1.50;;;;;;;18.80;64.62;98091.28;1752799;82;20998;-66
2021/06/14 15:29:22;;;;;;;4.20;1.70;;;;;;;18.73;64.66;98099.77;1753038;82;20900;-71
2021/06/14 15:31:49;;;;;;;2.72;1.77;;;;;;;18.64;64.95;98095.82;1752813;82;20927;-65
2021/06/14 15:34:16;;;;;;;5.28;2.02;;;;;;;18.56;65.37;98103.50;1752884;82;21123;-66
2021/06/14 15:36:43;;;;;;;2.98;1.98;;;;;;;18.44;66.26;98099.42;1752739;82;20829;-66
2021/06/14 15:39:10;;;;;;;3.37;1.85;;;;;;;18.33;66.60;98103.69;1753070;81;20879;-67
2021/06/14 15:41:36;;;;;;;2.50;1.67;;;;;;;18.18;67.36;98100.30;1752772;81;21070;-68
2021/06/14 15:44:05;;;;;;;3.62;1.75;;;;;;;18.04;68.12;98106.59;1697257;82;20923;-68
2021/06/14 15:46:32;;;;;;;3.25;2.08;;;;;;;17.87;68.70;98098.64;1752969;81;21133;-67
2021/06/14 15:49:00;;;;;;;5.35;1.80;;;;;;;17.73;69.14;98100.30;1752736;82;20915;-65
2021/06/14 15:51:27;;;;;;;5.03;2.00;;;;;;;17.60;69.58;98100.00;1752940;82;21451;-67
2021/06/14 15:53:56;;;;;;;4.30;2.15;;;;;;;17.50;70.05;98101.77;1764191;80;20873;-66
2021/06/14 15:56:23;;;;;;;4.55;2.00;;;;;;;17.45;70.32;98099.25;1779850;80;20927;-66
2021/06/14 15:58:51;;;;;;;3.40;1.95;;;;;;;17.40;70.49;98102.95;1780168;80;21073;-66
2021/06/14 16:01:18;;;;;;;6.20;1.90;;;;;;;17.40;70.74;98097.55;1780045;80;21458;-66
2021/06/14 16:03:44;;;;;;;4.58;2.10;;;;;;;17.38;70.87;98097.64;1779889;80;20924;-66
2021/06/14 16:06:12;;;;;;;3.55;2.12;;;;;;;17.35;71.24;98096.39;1779871;80;20920;-67
2021/06/14 16:08:39;;;;;;;3.12;2.12;;;;;;;17.29;71.41;98097.69;1779921;80;20982;-66
2021/06/14 16:11:06;;;;;;;3.80;1.75;;;;;;;17.22;71.42;98093.38;1779889;80;21071;-62
2021/06/14 16:13:33;;;;;;;5.97;2.12;;;;;;;17.18;71.57;98095.16;1779692;80;20888;-64
2021/06/14 16:16:00;;;;;;;3.55;2.25;;;;;;;17.15;71.43;98103.94;1779886;80;21003;-68
2021/06/14 16:18:27;;;;;;;4.25;1.70;;;;;;;17.10;71.43;98102.77;1780090;80;21432;-69
2021/06/14 16:20:54;;;;;;;3.95;2.33;;;;;;;17.09;71.71;98106.61;1779836;80;21381;-64
2021/06/14 16:23:21;;;;;;;3.35;2.00;;;;;;;17.07;72.07;98107.51;1779887;80;21116;-68
2021/06/14 16:25:48;;;;;;;8.48;2.00;;;;;;;17.08;72.20;98106.38;1780129;80;20991;-69
2021/06/14 16:28:15;;;;;;;4.75;1.75;;;;;;;17.09;72.42;98107.97;1780463;80;21514;-64
2021/06/14 16:30:42;;;;;;;3.55;1.87;;;;;;;17.13;72.29;98111.59;1779772;80;21468;-67
2021/06/14 16:33:09;;;;;;;6.33;2.35;;;;;;;17.18;72.25;98108.70;1780272;80;21006;-65
2021/06/14 16:35:36;;;;;;;4.65;2.08;;;;;;;17.21;72.17;98113.45;1779751;80;21106;-65
2021/06/14 16:38:04;;;;;;;6.83;1.90;;;;;;;17.23;72.27;98117.98;1779819;80;20848;-65
2021/06/14 16:40:31;;;;;;;3.80;1.62;;;;;;;17.22;72.23;98115.02;1779849;80;20845;-67
2021/06/14 16:42:58;;;;;;;6.42;2.12;;;;;;;17.21;72.00;98112.10;1779842;80;20928;-66
2021/06/14 16:45:25;;;;;;;3.42;1.77;;;;;;;17.13;72.07;98106.18;1779948;80;21331;-66
2021/06/14 16:47:52;;;;;;;2.80;1.90;;;;;;;17.06;72.43;98101.85;1779898;80;21178;-67
2021/06/14 16:50:20;;;;;;;6.40;1.95;;;;;;;16.97;72.28;98090.30;1779788;80;20877;-66
2021/06/14 16:52:47;;;;;;;2.62;1.55;;;;;;;16.86;72.60;98089.88;1780097;80;20920;-65
2021/06/14 16:55:14;;;;;;;3.12;1.80;;;;;;;16.77;72.88;98093.20;1779763;79;20877;-67
2021/06/14 16:57:41;;;;;;;3.60;1.75;;;;;;;16.70;73.07;98089.45;1780339;80;20912;-66
2021/06/14 17:00:10;;;;;;;8.20;2.00;;;;;;;16.64;73.41;98082.63;1779769;80;21079;-66
2021/06/14 17:02:38;;;;;;;4.47;1.72;;;;;;;16.60;73.60;98089.83;1779966;80;21506;-66
2021/06/14 17:05:10;;;;;;;3.52;1.72;;;;;;;16.52;73.74;98090.09;1779759;80;21007;-69
2021/06/14 17:07:37;;;;;;;3.33;2.00;;;;;;;16.48;73.87;98100.51;1779860;80;20955;-66
2021/06/14 17:10:06;;;;;;;2.25;1.70;;;;;;;16.39;74.12;98095.92;1779996;80;21429;-66
2021/06/14 17:12:34;;;;;;;3.60;1.92;;;;;;;16.37;74.25;98098.71;1780105;80;21685;-67
2021/06/14 17:15:04;;;;;;;2.80;1.90;;;;;;;16.30;74.46;98095.17;1779766;80;20853;-66
2021/06/14 17:17:32;;;;;;;5.58;2.02;;;;;;;16.25;74.53;98095.34;1780208;80;20960;-67
2021/06/14 17:20:00;;;;;;;4.72;2.00;;;;;;;16.23;74.73;98106.23;1779827;80;20936;-67
2021/06/14 17:22:27;;;;;;;9.70;2.08;;;;;;;16.18;74.84;98109.92;1780180;80;21526;-66
2021/06/14 17:24:55;;;;;;;3.10;2.02;;;;;;;16.17;75.04;98113.75;1779820;80;21124;-67
2021/06/14 17:27:22;;;;;;;7.70;1.95;;;;;;;16.17;75.28;98115.10;1779754;80;20931;-68
2021/06/14 17:29:49;;;;;;;6.28;1.98;;;;;;;16.14;75.43;98113.03;1779840;80;21055;-66
